ETHN

Niederstetten Airport

Niederstetten, Germany
METAR ETHN 142320Z 15006KT 3000 BR OVC002 05/04 Q1027 AMB
Observed Flight Rules
Nov-14 @ 23:20 UTC (52 minutes ago) Instrument Flight Rules
Wind Visibility Clouds Conditions
150° at 6 knots 2,993 meters
  • Overcast at 200' AGL
  • Mist
Temperatures Readings
Current 5°C / 41°F
Dewpoint 4°C / 39°F
Humidity 93%
Altimeter 30.32" Hg
Pressure 1027 hPa
Elevation 473
METAR ETHN 142320Z 15006KT 3000 BR OVC002 05/04 Q1027 AMB
Observed Flight Rules
Nov-14 @ 23:20 UTC
(52 minutes ago)
LIFR
Wind Visibility
150° at 6 knots 2,993 meters
Clouds
  • Overcast at 200' AGL
Conditions
  • Mist
Temperature Dewpoint
5°C / 41°F 4°C / 39°F
Humidity Altimeter Pressure
93% 30.32" Hg 1027 hPa